createdAt,value
2018-06-03T00:01:19.575Z,99222.14
2018-06-03T00:03:47.914Z,99218.10
2018-06-03T00:06:16.173Z,99218.13
2018-06-03T00:08:44.550Z,99207.55
2018-06-03T00:11:13.027Z,99219.32
2018-06-03T00:13:41.302Z,99227.09
2018-06-03T00:16:09.913Z,99230.72
2018-06-03T00:18:38.193Z,99232.09
2018-06-03T00:21:29.273Z,99231.30
2018-06-03T00:23:57.579Z,99229.20
2018-06-03T00:26:26.212Z,99225.23
2018-06-03T00:28:54.475Z,99218.51
2018-06-03T00:31:22.788Z,99223.40
2018-06-03T00:33:51.987Z,99222.59
2018-06-03T00:36:32.032Z,99220.02
2018-06-03T00:39:00.319Z,99216.23
2018-06-03T00:41:28.612Z,99211.95
2018-06-03T00:43:56.906Z,99219.45
2018-06-03T00:46:25.206Z,99218.91
2018-06-03T00:48:53.538Z,99213.22
2018-06-03T00:51:21.821Z,99217.22
2018-06-03T00:53:50.104Z,99213.61
2018-06-03T00:56:30.161Z,99210.59
2018-06-03T00:58:58.800Z,99201.17
2018-06-03T01:01:27.107Z,99211.50
2018-06-03T01:03:55.411Z,99214.41
2018-06-03T01:06:23.732Z,99205.05
2018-06-03T01:08:52.016Z,99210.94
2018-06-03T01:11:20.335Z,99215.81
2018-06-03T01:13:48.635Z,99216.41
2018-06-03T01:16:16.942Z,99212.23
2018-06-03T01:18:45.229Z,99207.23
2018-06-03T01:21:14.318Z,99211.98
2018-06-03T01:23:42.934Z,99205.87
2018-06-03T01:26:12.293Z,99196.34
2018-06-03T01:28:40.608Z,99193.08
2018-06-03T01:31:09.255Z,99191.69
2018-06-03T01:33:37.582Z,99192.85
2018-06-03T01:36:05.857Z,99198.17
2018-06-03T01:38:34.188Z,99192.06
2018-06-03T01:41:02.479Z,99197.09
2018-06-03T01:43:30.811Z,99198.57
2018-06-03T01:45:59.115Z,99190.69
2018-06-03T01:48:27.439Z,99190.30
2018-06-03T01:50:55.743Z,99191.92
2018-06-03T01:53:24.054Z,99197.78
2018-06-03T01:55:52.337Z,99192.17
2018-06-03T01:58:20.632Z,99193.45
2018-06-03T02:00:48.936Z,99188.59
2018-06-03T02:03:17.225Z,99186.20
2018-06-03T02:05:45.525Z,99183.83
2018-06-03T02:08:13.810Z,99187.67
2018-06-03T02:10:42.093Z,99179.77
2018-06-03T02:13:10.414Z,99175.92
2018-06-03T02:15:38.729Z,99177.23
2018-06-03T02:18:07.026Z,99171.85
2018-06-03T02:20:35.287Z,99165.59
2018-06-03T02:23:03.574Z,99163.34
2018-06-03T02:25:31.871Z,99165.21
2018-06-03T02:28:00.158Z,99171.18
2018-06-03T02:30:28.465Z,99171.43
2018-06-03T02:32:56.755Z,99168.62
2018-06-03T02:35:25.054Z,99171.22
2018-06-03T02:37:53.349Z,99166.98
2018-06-03T02:40:21.665Z,99166.70
2018-06-03T02:42:49.942Z,99166.77
2018-06-03T02:45:18.239Z,99168.14
2018-06-03T02:47:46.523Z,99159.17
2018-06-03T02:50:14.959Z,99165.11
2018-06-03T02:52:43.253Z,99166.38
2018-06-03T02:55:11.551Z,99158.02
2018-06-03T02:57:39.838Z,99167.87
2018-06-03T03:00:08.166Z,99162.75
2018-06-03T03:02:36.475Z,99165.59
2018-06-03T03:05:05.282Z,99166.64
2018-06-03T03:07:33.559Z,99160.28
2018-06-03T03:10:02.463Z,99153.78
2018-06-03T03:12:30.742Z,99151.28
2018-06-03T03:14:59.093Z,99158.22
2018-06-03T03:17:27.384Z,99155.72
2018-06-03T03:19:55.705Z,99154.08
2018-06-03T03:22:23.991Z,99162.58
2018-06-03T03:24:52.268Z,99153.34
2018-06-03T03:27:21.518Z,99159.73
2018-06-03T03:29:49.782Z,99164.33
2018-06-03T03:32:18.118Z,99167.36
2018-06-03T03:34:46.398Z,99165.63
2018-06-03T03:37:14.714Z,99169.94
2018-06-03T03:39:42.997Z,99168.20
2018-06-03T03:42:11.314Z,99161.08
2018-06-03T03:44:39.632Z,99162.59
2018-06-03T03:47:07.931Z,99171.92
2018-06-03T03:49:36.454Z,99176.06
2018-06-03T03:52:04.885Z,99176.91
2018-06-03T03:54:33.157Z,99172.72
2018-06-03T03:57:01.442Z,99158.22
2018-06-03T03:59:29.709Z,99183.94
2018-06-03T04:01:58.095Z,99190.05
2018-06-03T04:04:26.366Z,99195.23
2018-06-03T04:06:54.738Z,99187.84
2018-06-03T04:10:21.981Z,99194.45
2018-06-03T04:12:51.179Z,99189.60
2018-06-03T04:15:20.281Z,99197.27
2018-06-03T04:17:49.480Z,99198.90
2018-06-03T04:20:18.677Z,99193.87
2018-06-03T04:22:47.874Z,99190.70
2018-06-03T04:25:17.090Z,99196.04
2018-06-03T04:27:46.185Z,99197.07
2018-06-03T04:30:15.633Z,99201.18
2018-06-03T04:32:44.872Z,99201.36
2018-06-03T04:35:14.087Z,99196.52
2018-06-03T04:37:43.223Z,99199.84
2018-06-03T04:40:12.350Z,99195.16
2018-06-03T04:42:41.462Z,99202.10
2018-06-03T04:45:10.753Z,99198.52
2018-06-03T04:47:39.844Z,99204.27
2018-06-03T04:50:08.947Z,99200.20
2018-06-03T04:52:38.006Z,99203.05
2018-06-03T04:55:07.293Z,99197.91
2018-06-03T04:57:36.367Z,99200.15
2018-06-03T05:00:05.545Z,99205.19
2018-06-03T05:02:34.715Z,99209.20
2018-06-03T05:05:03.822Z,99206.95
2018-06-03T05:07:33.007Z,99206.76
2018-06-03T05:10:02.206Z,99201.07
2018-06-03T05:12:31.370Z,99204.19
2018-06-03T05:15:00.530Z,99208.16
2018-06-03T05:17:29.716Z,99181.95
2018-06-03T05:19:58.857Z,99207.27
2018-06-03T05:22:28.066Z,99201.27
2018-06-03T05:24:57.248Z,99203.27
2018-06-03T05:27:26.376Z,99203.98
2018-06-03T05:29:55.517Z,99202.20
2018-06-03T05:32:24.658Z,99205.84
2018-06-03T05:34:53.800Z,99206.33
2018-06-03T05:37:23.680Z,99198.00
2018-06-03T05:39:53.086Z,99193.95
2018-06-03T05:42:22.217Z,99195.13
2018-06-03T05:44:51.383Z,99196.28
2018-06-03T05:47:20.499Z,99198.74
2018-06-03T05:49:49.569Z,99200.16
2018-06-03T05:52:18.760Z,99200.47
2018-06-03T05:54:47.959Z,99201.63
2018-06-03T05:57:17.065Z,99202.54
2018-06-03T05:59:46.789Z,99203.27
2018-06-03T06:02:15.968Z,99199.97
2018-06-03T06:04:45.097Z,99203.95
2018-06-03T06:07:14.353Z,99202.97
2018-06-03T06:09:43.455Z,99210.44
2018-06-03T06:12:12.657Z,99198.15
2018-06-03T06:14:41.750Z,99199.75
2018-06-03T06:17:10.881Z,99202.28
2018-06-03T06:19:40.026Z,99201.50
2018-06-03T06:22:09.174Z,99204.17
2018-06-03T06:24:38.226Z,99199.63
2018-06-03T06:27:07.371Z,99203.20
2018-06-03T06:29:36.457Z,99202.36
2018-06-03T06:32:06.642Z,99206.00
2018-06-03T06:34:35.902Z,99208.66
2018-06-03T06:37:05.072Z,99204.49
2018-06-03T06:39:34.187Z,99207.27
2018-06-03T06:42:03.435Z,99209.05
2018-06-03T06:44:32.948Z,99215.43
2018-06-03T06:47:02.136Z,99216.25
2018-06-03T06:49:31.300Z,99215.98
2018-06-03T06:52:00.846Z,99222.16
2018-06-03T06:54:30.090Z,99196.36
2018-06-03T06:56:59.233Z,99217.00
2018-06-03T06:59:28.433Z,99214.65
2018-06-03T07:01:57.634Z,99214.19
2018-06-03T07:04:26.827Z,99216.17
2018-06-03T07:06:55.923Z,99214.02
2018-06-03T07:09:25.022Z,99210.72
2018-06-03T07:11:54.122Z,99210.92
2018-06-03T07:14:23.268Z,99219.26
2018-06-03T07:16:52.927Z,99215.17
2018-06-03T07:19:22.062Z,99211.98
2018-06-03T07:21:51.165Z,99210.65
2018-06-03T07:24:20.301Z,99201.91
2018-06-03T07:26:49.559Z,99201.69
2018-06-03T07:29:18.775Z,99201.06
2018-06-03T07:31:47.896Z,99192.89
2018-06-03T07:34:17.036Z,99193.00
2018-06-03T07:36:46.229Z,99192.67
2018-06-03T07:39:15.404Z,99195.58
2018-06-03T07:41:44.565Z,99198.88
2018-06-03T07:44:13.767Z,99200.52
2018-06-03T07:46:42.885Z,99199.13
2018-06-03T07:49:12.193Z,99200.73
2018-06-03T07:51:41.378Z,99197.76
2018-06-03T07:54:10.689Z,99195.42
2018-06-03T07:56:39.886Z,99199.11
2018-06-03T07:59:09.150Z,99196.90
2018-06-03T08:01:38.376Z,99196.41
2018-06-03T08:04:07.461Z,99203.70
2018-06-03T08:06:36.641Z,99066.62
2018-06-03T08:09:07.684Z,99201.00
2018-06-03T08:11:37.316Z,99195.27
2018-06-03T08:14:06.487Z,99191.33
2018-06-03T08:16:35.804Z,99194.27
2018-06-03T08:19:05.701Z,99194.61
2018-06-03T08:21:34.806Z,99190.33
2018-06-03T08:24:03.996Z,99185.59
2018-06-03T08:26:33.108Z,99177.42
2018-06-03T08:29:02.259Z,99175.95
2018-06-03T08:31:31.409Z,99163.59
2018-06-03T08:34:00.593Z,99167.93
2018-06-03T08:36:29.876Z,99161.53
2018-06-03T08:38:59.004Z,99136.81
2018-06-03T08:41:28.069Z,99164.34
2018-06-03T08:43:57.161Z,99165.53
2018-06-03T08:46:26.330Z,99163.50
2018-06-03T08:48:55.573Z,99158.58
2018-06-03T08:51:24.669Z,99112.41
2018-06-03T08:53:53.851Z,99155.19
2018-06-03T08:56:23.059Z,99156.61
2018-06-03T08:58:59.127Z,99156.80
2018-06-03T09:01:28.200Z,99156.23
2018-06-03T09:03:57.408Z,99153.63
2018-06-03T09:06:26.604Z,99149.91
2018-06-03T09:08:55.909Z,99149.64
2018-06-03T09:11:25.038Z,99152.23
2018-06-03T09:13:54.205Z,99144.46
2018-06-03T09:16:23.380Z,99148.81
2018-06-03T09:18:53.252Z,99136.75
2018-06-03T09:21:22.513Z,99136.30
2018-06-03T09:23:51.665Z,99136.33
2018-06-03T09:26:21.528Z,99138.83
2018-06-03T09:28:50.633Z,99128.78
2018-06-03T09:31:19.723Z,99131.77
2018-06-03T09:33:48.787Z,99123.89
2018-06-03T09:45:18.789Z,99122.14
2018-06-03T09:47:48.598Z,99117.37
2018-06-03T09:50:18.054Z,99114.59
2018-06-03T09:52:47.382Z,99111.34
2018-06-03T09:55:16.462Z,99115.83
2018-06-03T09:57:46.014Z,99108.31
2018-06-03T10:00:17.012Z,99106.73
2018-06-03T10:02:46.243Z,99100.89
2018-06-03T10:05:15.430Z,99102.34
2018-06-03T10:07:44.555Z,99106.31
2018-06-03T10:10:13.733Z,99103.42
2018-06-03T10:12:42.845Z,99106.12
2018-06-03T10:15:12.028Z,99104.77
2018-06-03T10:17:41.532Z,99096.36
2018-06-03T10:20:10.705Z,99098.97
2018-06-03T10:22:40.115Z,99100.68
2018-06-03T10:25:09.570Z,99105.30
2018-06-03T10:27:39.130Z,99109.95
2018-06-03T10:30:08.231Z,99109.45
2018-06-03T10:32:37.428Z,99109.63
2018-06-03T10:35:06.834Z,99104.45
2018-06-03T10:37:36.263Z,99097.73
2018-06-03T10:40:05.446Z,99095.83
2018-06-03T10:42:34.630Z,99101.00
2018-06-03T10:45:05.358Z,99102.41
2018-06-03T10:47:34.459Z,99096.20
2018-06-03T10:50:04.226Z,99095.01
2018-06-03T10:52:33.593Z,99094.81
2018-06-03T10:55:03.278Z,99094.22
2018-06-03T10:57:32.469Z,99094.02
2018-06-03T11:00:01.587Z,99092.64
2018-06-03T11:02:30.778Z,99091.13
2018-06-03T11:04:59.966Z,99086.54
2018-06-03T11:07:29.162Z,99083.84
2018-06-03T11:09:58.387Z,99086.77
2018-06-03T11:12:28.481Z,99073.02
2018-06-03T11:14:57.782Z,99072.59
2018-06-03T11:17:26.968Z,99082.92
2018-06-03T11:19:56.274Z,99071.41
2018-06-03T11:22:27.001Z,99073.30
2018-06-03T11:24:56.199Z,99077.08
2018-06-03T11:27:25.343Z,99065.20
2018-06-03T11:29:54.466Z,99067.09
2018-06-03T11:32:23.592Z,99068.70
2018-06-03T11:34:52.798Z,99061.48
2018-06-03T11:37:21.890Z,99053.42
2018-06-03T11:39:51.095Z,99058.73
2018-06-03T11:42:20.282Z,99051.80
2018-06-03T11:44:49.697Z,99044.62
2018-06-03T11:47:18.876Z,99044.80
2018-06-03T11:49:48.010Z,99040.18
2018-06-03T11:52:17.235Z,99047.55
2018-06-03T11:54:46.636Z,99040.43
2018-06-03T11:57:15.809Z,99041.41
2018-06-03T11:59:45.705Z,99033.05
2018-06-03T12:02:16.390Z,99033.84
2018-06-03T12:04:45.651Z,99028.80
2018-06-03T12:07:14.819Z,99025.75
2018-06-03T12:09:44.045Z,99032.81
2018-06-03T12:12:13.212Z,99030.08
2018-06-03T12:14:42.437Z,99027.38
2018-06-03T12:17:11.621Z,99024.81
2018-06-03T12:19:40.883Z,99017.91
2018-06-03T12:22:10.099Z,99014.56
2018-06-03T12:24:39.919Z,99019.03
2018-06-03T12:27:09.122Z,99009.44
2018-06-03T12:29:38.319Z,99016.25
2018-06-03T12:32:07.474Z,99016.58
2018-06-03T12:34:36.708Z,99011.61
2018-06-03T12:37:06.716Z,99004.78
2018-06-03T12:39:35.816Z,99004.78
2018-06-03T12:42:06.010Z,99005.16
2018-06-03T12:44:36.515Z,98994.75
2018-06-03T12:47:06.502Z,98990.41
2018-06-03T12:49:36.248Z,98990.41
2018-06-03T12:52:06.181Z,98990.27
2018-06-03T12:54:35.317Z,98985.94
2018-06-03T12:57:04.917Z,98978.96
2018-06-03T12:59:34.119Z,98980.59
2018-06-03T13:02:03.630Z,98977.14
2018-06-03T13:04:32.809Z,98979.34
2018-06-03T13:07:01.963Z,98969.94
2018-06-03T13:09:31.361Z,98969.47
2018-06-03T13:12:01.152Z,98968.17
2018-06-03T13:14:30.618Z,98963.74
2018-06-03T13:17:00.262Z,98957.90
2018-06-03T13:19:29.453Z,98964.72
2018-06-03T13:21:58.611Z,98953.02
2018-06-03T13:24:27.725Z,98953.14
2018-06-03T13:26:56.899Z,98956.78
2018-06-03T13:29:26.735Z,98951.27
2018-06-03T13:31:57.174Z,98950.52
2018-06-03T13:34:26.468Z,98953.33
2018-06-03T13:36:55.789Z,98940.76
2018-06-03T13:39:25.054Z,98931.88
2018-06-03T13:41:54.826Z,98945.41
2018-06-03T13:44:23.891Z,98941.31
2018-06-03T13:46:53.220Z,98932.97
2018-06-03T13:49:23.037Z,98820.69
2018-06-03T13:51:52.328Z,98925.17
2018-06-03T13:54:21.504Z,98915.72
2018-06-03T13:56:52.209Z,98909.26
2018-06-03T13:59:21.536Z,98908.91
2018-06-03T14:01:53.684Z,98905.11
2018-06-03T14:04:23.255Z,98908.92
2018-06-03T14:06:52.493Z,98900.33
2018-06-03T14:09:21.682Z,98898.48
2018-06-03T14:11:51.219Z,98900.28
2018-06-03T14:14:20.381Z,98893.19
2018-06-03T14:16:50.043Z,98899.12
2018-06-03T14:19:19.195Z,98893.20
2018-06-03T14:21:48.298Z,98887.75
2018-06-03T14:24:17.430Z,98888.98
2018-06-03T14:26:46.503Z,98876.74
2018-06-03T14:29:15.676Z,98893.43
2018-06-03T14:31:44.793Z,98883.45
2018-06-03T14:34:13.959Z,98893.17
2018-06-03T14:36:43.070Z,98897.31
2018-06-03T14:39:12.258Z,98884.63
2018-06-03T14:41:41.734Z,98880.02
2018-06-03T14:44:10.967Z,98877.61
2018-06-03T14:46:40.097Z,98874.64
2018-06-03T14:49:09.261Z,98871.84
2018-06-03T14:51:38.530Z,98868.43
2018-06-03T14:54:07.746Z,98866.50
2018-06-03T14:56:36.906Z,98862.77
2018-06-03T14:59:06.029Z,98845.59
2018-06-03T15:01:35.203Z,98861.52
2018-06-03T15:04:04.945Z,98851.69
2018-06-03T15:06:34.473Z,98853.17
2018-06-03T15:09:04.778Z,98843.64
2018-06-03T15:11:33.973Z,98849.70
2018-06-03T15:14:03.306Z,98850.23
2018-06-03T15:16:32.479Z,98846.95
2018-06-03T15:19:01.699Z,98843.25
2018-06-03T15:21:30.990Z,98838.70
2018-06-03T15:24:00.160Z,98837.54
2018-06-03T15:26:29.350Z,98829.52
2018-06-03T15:28:58.570Z,98831.58
2018-06-03T15:31:27.730Z,98833.06
2018-06-03T15:33:56.961Z,98821.02
2018-06-03T15:36:26.409Z,98820.80
2018-06-03T15:38:55.913Z,98819.10
2018-06-03T15:41:26.202Z,98820.99
2018-06-03T15:43:57.338Z,98818.41
2018-06-03T15:46:26.638Z,98813.69
2018-06-03T15:48:56.817Z,98818.30
2018-06-03T15:51:26.028Z,98815.00
2018-06-03T15:53:55.106Z,98812.98
2018-06-03T15:56:24.542Z,98811.36
2018-06-03T15:58:53.982Z,98818.95
2018-06-03T16:01:23.302Z,98812.02
2018-06-03T16:03:52.720Z,98815.84
2018-06-03T16:06:22.424Z,98817.41
2018-06-03T16:08:52.772Z,98819.22
2018-06-03T16:11:22.061Z,98825.41
2018-06-03T16:13:51.271Z,98818.78
2018-06-03T16:16:20.579Z,98820.02
2018-06-03T16:18:55.888Z,98808.25
2018-06-03T16:21:25.087Z,98807.73
2018-06-03T16:23:54.621Z,98809.28
2018-06-03T16:26:24.354Z,98816.81
2018-06-03T16:28:53.510Z,98797.34
2018-06-03T16:31:22.865Z,98797.98
2018-06-03T16:33:52.596Z,98789.78
2018-06-03T16:36:22.283Z,98766.13
2018-06-03T16:38:51.658Z,98784.81
2018-06-03T16:41:20.845Z,98781.54
2018-06-03T16:43:50.345Z,98773.28
2018-06-03T16:46:19.604Z,98779.97
2018-06-03T16:48:48.893Z,98779.43
2018-06-03T16:51:18.116Z,98784.45
2018-06-03T16:53:47.387Z,98773.81
2018-06-03T16:56:16.796Z,98772.29
2018-06-03T16:58:45.964Z,98779.58
2018-06-03T17:01:16.117Z,98784.10
2018-06-03T17:03:45.282Z,98779.99
2018-06-03T17:06:14.453Z,98784.05
2018-06-03T17:08:43.672Z,98775.88
2018-06-03T17:11:12.976Z,98768.66
2018-06-03T17:13:47.366Z,98767.78
2018-06-03T17:16:16.980Z,98765.15
2018-06-03T17:18:46.467Z,98761.31
2018-06-03T17:21:15.994Z,98762.30
2018-06-03T17:23:45.189Z,98754.61
2018-06-03T17:26:14.431Z,98759.30
2018-06-03T17:28:43.539Z,98764.20
2018-06-03T17:31:12.675Z,98765.44
2018-06-03T17:33:45.362Z,98770.34
2018-06-03T17:36:14.653Z,98750.28
2018-06-03T17:44:44.945Z,98760.74
2018-06-03T17:47:14.041Z,98760.37
2018-06-03T17:49:43.126Z,98762.48
2018-06-03T17:52:12.352Z,98765.23
2018-06-03T17:54:41.510Z,98772.00
2018-06-03T17:57:10.705Z,98776.13
2018-06-03T17:59:39.928Z,98773.20
2018-06-03T18:02:09.135Z,98771.45
2018-06-03T18:04:38.342Z,98776.70
2018-06-03T18:07:07.537Z,98776.09
2018-06-03T18:09:37.446Z,98773.90
2018-06-03T18:12:06.626Z,98768.44
2018-06-03T18:14:35.801Z,98769.41
2018-06-03T18:17:05.214Z,98764.42
2018-06-03T18:19:34.454Z,98761.45
2018-06-03T18:22:03.700Z,98767.77
2018-06-03T18:24:33.192Z,98763.52
2018-06-03T18:27:02.604Z,98759.44
2018-06-03T18:29:31.806Z,98760.13
2018-06-03T18:32:01.092Z,98752.98
2018-06-03T18:34:30.759Z,98757.45
2018-06-03T18:36:59.956Z,98750.77
2018-06-03T18:39:35.731Z,98749.64
2018-06-03T18:42:05.872Z,98750.14
2018-06-03T18:44:35.034Z,98733.74
2018-06-03T18:47:04.312Z,98731.04
2018-06-03T18:49:33.641Z,98734.03
2018-06-03T18:52:03.017Z,98731.80
2018-06-03T18:54:32.219Z,98722.07
2018-06-03T18:57:02.351Z,98724.40
2018-06-03T18:59:31.559Z,98716.61
2018-06-03T19:02:00.786Z,98718.78
2018-06-03T19:04:31.001Z,98724.86
2018-06-03T19:07:00.264Z,98716.59
2018-06-03T19:09:29.749Z,98720.96
2018-06-03T19:11:59.072Z,98718.19
2018-06-03T19:14:28.371Z,98720.28
2018-06-03T19:16:57.654Z,98714.03
2018-06-03T19:19:27.340Z,98721.45
2018-06-03T19:21:56.487Z,98719.17
2018-06-03T19:24:25.663Z,98717.78
2018-06-03T19:26:55.049Z,98708.08
2018-06-03T19:29:24.274Z,98706.25
2018-06-03T19:31:54.079Z,98708.94
2018-06-03T19:34:23.486Z,98708.62
2018-06-03T19:36:52.777Z,98708.88
2018-06-03T19:39:22.067Z,98713.25
2018-06-03T19:41:51.486Z,98713.41
2018-06-03T19:44:20.581Z,98712.30
2018-06-03T19:46:49.766Z,98716.06
2018-06-03T19:49:18.919Z,98710.83
2018-06-03T19:51:48.088Z,98713.98
2018-06-03T19:54:18.293Z,98717.92
2018-06-03T19:56:47.580Z,98712.73
2018-06-03T19:59:16.882Z,98710.70
2018-06-03T20:01:46.091Z,98720.06
2018-06-03T20:04:15.282Z,98713.31
2018-06-03T20:06:45.316Z,98716.61
2018-06-03T20:09:14.485Z,98716.61
2018-06-03T20:11:44.500Z,98726.09
2018-06-03T20:14:13.666Z,98725.00
2018-06-03T20:16:42.863Z,98731.97
2018-06-03T20:19:12.163Z,98736.42
2018-06-03T20:21:41.472Z,98735.98
2018-06-03T20:24:10.644Z,98740.08
2018-06-03T20:26:39.891Z,98741.16
2018-06-03T20:29:09.200Z,98735.33
2018-06-03T20:31:39.218Z,98740.99
2018-06-03T20:34:09.438Z,98746.85
2018-06-03T20:36:38.618Z,98746.77
2018-06-03T20:39:08.580Z,98738.38
2018-06-03T20:41:37.735Z,98746.80
2018-06-03T20:44:06.911Z,98750.52
2018-06-03T20:46:36.048Z,98749.23
2018-06-03T20:49:05.293Z,98752.70
2018-06-03T20:51:34.578Z,98752.06
2018-06-03T20:54:03.841Z,98755.06
2018-06-03T20:56:33.046Z,98756.73
2018-06-03T20:59:02.307Z,98756.94
2018-06-03T21:01:31.446Z,98758.45
2018-06-03T21:04:00.720Z,98758.72
2018-06-03T21:06:29.883Z,98763.70
2018-06-03T21:08:59.135Z,98765.05
2018-06-03T21:11:28.285Z,98765.98
2018-06-03T21:13:57.475Z,98768.71
2018-06-03T21:16:27.009Z,98764.18
2018-06-03T21:18:56.109Z,98760.98
2018-06-03T21:21:25.927Z,98765.70
2018-06-03T21:23:55.040Z,98764.23
2018-06-03T21:26:24.567Z,98765.95
2018-06-03T21:28:54.143Z,98755.53
2018-06-03T21:31:23.333Z,98757.00
2018-06-03T21:33:52.671Z,98758.84
2018-06-03T21:36:21.768Z,98756.54
2018-06-03T21:38:51.065Z,98759.37
2018-06-03T21:41:20.198Z,98765.20
2018-06-03T21:43:49.346Z,98766.28
2018-06-03T21:46:18.452Z,98767.77
2018-06-03T21:48:47.660Z,98763.63
2018-06-03T21:51:16.829Z,98762.52
2018-06-03T21:53:46.051Z,98764.86
2018-06-03T21:56:15.202Z,98764.09
2018-06-03T21:58:44.299Z,98762.23
2018-06-03T22:01:13.532Z,98762.64
2018-06-03T22:03:43.125Z,98762.45
2018-06-03T22:06:12.601Z,98761.13
2018-06-03T22:08:41.814Z,98755.66
2018-06-03T22:11:10.927Z,98763.48
2018-06-03T22:13:40.156Z,98760.23
2018-06-03T22:16:09.401Z,98759.80
2018-06-03T22:18:38.822Z,98756.66
2018-06-03T22:21:07.910Z,98754.44
2018-06-03T22:23:37.006Z,98748.75
2018-06-03T22:26:06.134Z,98746.50
2018-06-03T22:28:35.282Z,98740.78
2018-06-03T22:31:04.403Z,98736.42
2018-06-03T22:33:33.580Z,98736.55
2018-06-03T22:36:02.770Z,98739.02
2018-06-03T22:38:31.889Z,98724.34
2018-06-03T22:41:01.091Z,98718.42
2018-06-03T22:43:30.261Z,98720.93
2018-06-03T22:45:59.357Z,98718.55
2018-06-03T22:48:28.885Z,98712.63
2018-06-03T22:50:58.064Z,98714.88
2018-06-03T22:53:27.182Z,98712.63
2018-06-03T22:55:56.310Z,98712.97
2018-06-03T22:58:25.640Z,98718.09
2018-06-03T23:00:54.940Z,98719.45
2018-06-03T23:03:24.257Z,98724.06
2018-06-03T23:05:53.441Z,98720.58
2018-06-03T23:08:22.726Z,98719.44
2018-06-03T23:10:52.096Z,98722.13
2018-06-03T23:13:21.323Z,98727.59
2018-06-03T23:15:51.937Z,98724.10
2018-06-03T23:18:22.097Z,98712.92
2018-06-03T23:20:51.345Z,98715.95
2018-06-03T23:23:20.570Z,98714.62
2018-06-03T23:25:50.196Z,98717.94
2018-06-03T23:28:19.413Z,98713.14
2018-06-03T23:30:48.644Z,98712.75
2018-06-03T23:33:18.011Z,98709.06
2018-06-03T23:35:47.185Z,98715.13
2018-06-03T23:38:16.402Z,98713.33
2018-06-03T23:40:45.727Z,98707.63
2018-06-03T23:43:14.907Z,98708.83
2018-06-03T23:45:44.200Z,98705.16
2018-06-03T23:48:13.402Z,98709.31
2018-06-03T23:50:42.632Z,98712.16
2018-06-03T23:53:11.872Z,98699.18
2018-06-03T23:55:41.499Z,98693.55
2018-06-03T23:58:10.944Z,98550.28
